Ehrenberg, Arizona
Current Conditions -  °F | °C
As of 8:52 AM on Tuesday 21 Oct 2014 (Local Time) from KBLH Reporting Station
Clear Clear  
Wind Chill: 78°   Ceiling: Unl
Heat Index: 78°   Visibility: 10mi
Dew Point: 45°   Wind: 5mph
Humidity: 31%   Direction: 360°N
Pressure: 29.86"   Gusts: NA
Location:  33.6°N, 114.52°W
Report Text: KBLH 211552Z AUTO 36004KT 10SM CLR 26/07 A2986 RMK AO2 SLP106 T02560072
Loading
Personal Weather Stations






























Interactive Weather Map
Tropical Storm Tracking
New forecast layout! Learn more

10-Day Weather Forecast

Advertisements
Track Severe Weather on mobile